createdAt,value
2019-03-15T00:00:59.383Z,991.26
2019-03-15T00:01:59.384Z,991.30
2019-03-15T00:02:59.364Z,991.28
2019-03-15T00:03:59.349Z,991.31
2019-03-15T00:04:59.348Z,991.34
2019-03-15T00:05:59.487Z,991.29
2019-03-15T00:06:59.327Z,991.41
2019-03-15T00:07:59.308Z,991.36
2019-03-15T00:08:59.301Z,991.38
2019-03-15T00:09:59.285Z,991.49
2019-03-15T00:10:59.277Z,991.45
2019-03-15T00:11:59.274Z,991.43
2019-03-15T00:12:59.253Z,991.55
2019-03-15T00:13:59.245Z,991.51
2019-03-15T00:14:59.229Z,991.64
2019-03-15T00:15:59.218Z,991.58
2019-03-15T00:16:59.229Z,991.58
2019-03-15T00:17:59.197Z,991.56
2019-03-15T00:18:59.192Z,991.64
2019-03-15T00:19:59.178Z,991.62
2019-03-15T00:20:59.165Z,991.53
2019-03-15T00:21:59.162Z,991.59
2019-03-15T00:22:59.141Z,991.69
2019-03-15T00:23:59.131Z,991.61
2019-03-15T00:24:59.121Z,991.66
2019-03-15T00:25:59.111Z,991.69
2019-03-15T00:26:59.108Z,991.68
2019-03-15T00:27:59.093Z,991.71
2019-03-15T00:28:59.077Z,991.71
2019-03-15T00:29:59.066Z,991.67
2019-03-15T00:30:59.059Z,991.67
2019-03-15T00:31:59.054Z,991.69
2019-03-15T00:32:59.032Z,991.67
2019-03-15T00:33:59.026Z,991.69
2019-03-15T00:34:59.011Z,991.69
2019-03-15T00:35:59.068Z,991.68
2019-03-15T00:36:59.000Z,991.73
2019-03-15T00:37:58.978Z,991.81
2019-03-15T00:38:58.968Z,991.84
2019-03-15T00:39:58.972Z,991.94
2019-03-15T00:40:58.944Z,991.85
2019-03-15T00:41:58.949Z,991.89
2019-03-15T00:42:58.922Z,991.91
2019-03-15T00:43:58.914Z,991.82
2019-03-15T00:44:58.908Z,991.89
2019-03-15T00:45:59.038Z,991.90
2019-03-15T00:46:58.889Z,991.92
2019-03-15T00:47:58.869Z,991.94
2019-03-15T00:48:58.859Z,991.96
2019-03-15T00:49:58.852Z,991.87
2019-03-15T00:50:58.927Z,991.89
2019-03-15T00:51:58.854Z,991.90
2019-03-15T00:52:58.816Z,991.90
2019-03-15T00:53:58.808Z,991.88
2019-03-15T00:54:58.795Z,991.98
2019-03-15T00:55:58.783Z,991.94
2019-03-15T00:56:58.772Z,991.97
2019-03-15T00:57:58.779Z,991.96
2019-03-15T00:58:58.752Z,991.97
2019-03-15T00:59:58.740Z,992.00
2019-03-15T01:00:58.728Z,991.99
2019-03-15T01:01:58.719Z,991.98
2019-03-15T01:02:58.717Z,991.97
2019-03-15T01:03:58.711Z,991.96
2019-03-15T01:04:58.687Z,992.05
2019-03-15T01:05:58.678Z,992.06
2019-03-15T01:06:58.663Z,992.04
2019-03-15T01:07:58.665Z,992.04
2019-03-15T01:08:58.643Z,992.05
2019-03-15T01:09:58.632Z,992.08
2019-03-15T01:10:58.619Z,992.06
2019-03-15T01:11:58.609Z,992.13
2019-03-15T01:12:58.607Z,992.10
2019-03-15T01:13:58.586Z,992.08
2019-03-15T01:14:58.578Z,992.15
2019-03-15T01:15:58.566Z,992.17
2019-03-15T01:16:58.554Z,992.10
2019-03-15T01:17:58.608Z,992.22
2019-03-15T01:18:58.534Z,992.13
2019-03-15T01:19:58.523Z,992.12
2019-03-15T01:20:58.513Z,992.27
2019-03-15T01:21:58.501Z,992.25
2019-03-15T01:22:58.531Z,992.08
2019-03-15T01:23:58.481Z,992.10
2019-03-15T01:24:58.474Z,992.22
2019-03-15T01:25:58.457Z,992.17
2019-03-15T01:26:58.448Z,992.23
2019-03-15T01:27:58.444Z,992.09
2019-03-15T01:28:58.490Z,992.15
2019-03-15T01:29:58.415Z,992.15
2019-03-15T01:30:58.402Z,992.23
2019-03-15T01:31:58.390Z,992.29
2019-03-15T01:32:58.392Z,992.29
2019-03-15T01:33:58.371Z,992.26
2019-03-15T01:34:58.358Z,992.31
2019-03-15T01:35:58.347Z,992.26
2019-03-15T01:36:58.337Z,992.24
2019-03-15T01:37:58.336Z,992.29
2019-03-15T01:38:58.314Z,992.27
2019-03-15T01:39:58.302Z,992.26
2019-03-15T01:40:58.295Z,992.31
2019-03-15T01:41:58.285Z,992.30
2019-03-15T01:42:58.280Z,992.31
2019-03-15T01:43:58.270Z,992.28
2019-03-15T01:44:58.250Z,992.32
2019-03-15T01:45:58.241Z,992.26
2019-03-15T01:46:59.312Z,992.25
2019-03-15T01:47:58.227Z,992.36
2019-03-15T01:48:58.213Z,992.29
2019-03-15T01:49:58.674Z,992.27
2019-03-15T01:50:58.183Z,992.35
2019-03-15T01:51:58.174Z,992.43
2019-03-15T01:52:58.560Z,992.39
2019-03-15T01:53:58.154Z,992.38
2019-03-15T01:54:58.145Z,992.37
2019-03-15T01:55:58.130Z,992.33
2019-03-15T01:56:58.120Z,992.45
2019-03-15T01:57:58.132Z,992.48
2019-03-15T01:58:58.108Z,992.46
2019-03-15T01:59:58.086Z,992.32
2019-03-15T02:00:58.078Z,992.40
2019-03-15T02:01:58.063Z,992.33
2019-03-15T02:02:58.063Z,992.38
2019-03-15T02:03:58.042Z,992.33
2019-03-15T02:04:58.043Z,992.45
2019-03-15T02:05:58.020Z,992.54
2019-03-15T02:06:58.015Z,992.43
2019-03-15T02:07:58.015Z,992.45
2019-03-15T02:08:57.988Z,992.46
2019-03-15T02:09:58.209Z,992.46
2019-03-15T02:10:57.967Z,992.43
2019-03-15T02:11:57.955Z,992.36
2019-03-15T02:12:57.960Z,992.42
2019-03-15T02:13:57.933Z,992.36
2019-03-15T02:14:57.923Z,992.41
2019-03-15T02:15:57.917Z,992.41
2019-03-15T02:16:57.902Z,992.37
2019-03-15T02:17:57.898Z,992.36
2019-03-15T02:18:57.881Z,992.39
2019-03-15T02:19:57.869Z,992.44
2019-03-15T02:20:57.856Z,992.49
2019-03-15T02:21:57.846Z,992.41
2019-03-15T02:22:58.385Z,992.51
2019-03-15T02:23:57.822Z,992.49
2019-03-15T02:24:57.815Z,992.43
2019-03-15T02:25:57.928Z,992.44
2019-03-15T02:26:57.791Z,992.46
2019-03-15T02:27:57.790Z,992.50
2019-03-15T02:28:57.770Z,992.54
2019-03-15T02:29:57.758Z,992.49
2019-03-15T02:30:57.751Z,992.57
2019-03-15T02:31:57.739Z,992.50
2019-03-15T02:32:57.735Z,992.50
2019-03-15T02:33:57.715Z,992.49
2019-03-15T02:34:57.704Z,992.53
2019-03-15T02:35:57.713Z,992.57
2019-03-15T02:36:57.683Z,992.56
2019-03-15T02:37:57.684Z,992.51
2019-03-15T02:38:57.665Z,992.55
2019-03-15T02:39:57.649Z,992.57
2019-03-15T02:40:57.644Z,992.52
2019-03-15T02:41:59.035Z,992.55
2019-03-15T02:42:57.629Z,992.66
2019-03-15T02:43:57.604Z,992.63
2019-03-15T02:44:57.597Z,992.66
2019-03-15T02:45:59.084Z,992.66
2019-03-15T02:46:57.574Z,992.62
2019-03-15T02:47:57.576Z,992.70
2019-03-15T02:48:57.553Z,992.73
2019-03-15T02:49:57.545Z,992.74
2019-03-15T02:50:57.532Z,992.82
2019-03-15T02:51:57.518Z,992.79
2019-03-15T02:52:57.522Z,992.83
2019-03-15T02:53:57.517Z,992.83
2019-03-15T02:54:57.489Z,992.81
2019-03-15T02:55:57.511Z,992.86
2019-03-15T02:56:57.480Z,992.83
2019-03-15T02:57:57.669Z,992.89
2019-03-15T02:58:57.444Z,992.98
2019-03-15T02:59:57.431Z,992.93
2019-03-15T03:00:57.429Z,992.88
2019-03-15T03:01:57.411Z,992.98
2019-03-15T03:02:57.398Z,992.86
2019-03-15T03:03:57.403Z,992.87
2019-03-15T03:04:57.376Z,992.93
2019-03-15T03:05:57.380Z,993.00
2019-03-15T03:06:57.382Z,992.89
2019-03-15T03:07:57.345Z,992.94
2019-03-15T03:08:57.346Z,992.88
2019-03-15T03:09:57.323Z,992.90
2019-03-15T03:10:57.311Z,992.93
2019-03-15T03:11:57.301Z,992.92
2019-03-15T03:12:57.296Z,993.09
2019-03-15T03:13:57.290Z,992.97
2019-03-15T03:14:58.282Z,992.99
2019-03-15T03:15:57.272Z,993.07
2019-03-15T03:16:57.258Z,993.15
2019-03-15T03:17:57.244Z,993.04
2019-03-15T03:18:57.234Z,993.04
2019-03-15T03:19:57.223Z,993.10
2019-03-15T03:20:57.207Z,993.10
2019-03-15T03:21:57.194Z,993.09
2019-03-15T03:22:57.186Z,993.12
2019-03-15T03:23:57.511Z,993.15
2019-03-15T03:24:57.164Z,993.11
2019-03-15T03:25:57.149Z,993.17
2019-03-15T03:26:57.138Z,993.15
2019-03-15T03:27:57.127Z,993.19
2019-03-15T03:28:57.161Z,993.24
2019-03-15T03:29:57.117Z,993.24
2019-03-15T03:30:57.094Z,993.34
2019-03-15T03:31:57.089Z,993.46
2019-03-15T03:32:57.092Z,993.42
2019-03-15T03:33:57.086Z,993.42
2019-03-15T03:34:57.058Z,993.48
2019-03-15T03:35:57.043Z,993.48
2019-03-15T03:36:58.013Z,993.47
2019-03-15T03:37:57.018Z,993.47
2019-03-15T03:38:57.017Z,993.46
2019-03-15T03:39:57.004Z,993.49
2019-03-15T03:40:57.147Z,993.53
2019-03-15T03:41:57.120Z,993.48
2019-03-15T03:42:56.964Z,993.52
2019-03-15T03:43:56.961Z,993.52
2019-03-15T03:44:56.940Z,993.57
2019-03-15T03:45:56.935Z,993.56
2019-03-15T03:46:56.923Z,993.57
2019-03-15T03:47:56.909Z,993.51
2019-03-15T03:48:56.907Z,993.56
2019-03-15T03:49:56.887Z,993.52
2019-03-15T03:50:59.803Z,993.45
2019-03-15T03:51:56.865Z,993.55
2019-03-15T03:52:56.862Z,993.58
2019-03-15T03:53:56.856Z,993.54
2019-03-15T03:54:57.654Z,993.58
2019-03-15T03:55:56.825Z,993.57
2019-03-15T03:56:56.817Z,993.55
2019-03-15T03:57:56.809Z,993.58
2019-03-15T03:58:56.799Z,993.59
2019-03-15T03:59:56.780Z,993.58
2019-03-15T04:00:56.768Z,993.59
2019-03-15T04:01:56.756Z,993.61
2019-03-15T04:02:56.747Z,993.60
2019-03-15T04:03:56.835Z,993.59
2019-03-15T04:04:56.721Z,993.48
2019-03-15T04:05:56.713Z,993.55
2019-03-15T04:06:56.700Z,993.69
2019-03-15T04:07:56.688Z,993.68
2019-03-15T04:08:56.690Z,993.65
2019-03-15T04:09:56.667Z,993.61
2019-03-15T04:10:56.657Z,993.71
2019-03-15T04:11:56.648Z,993.66
2019-03-15T04:12:56.637Z,993.63
2019-03-15T04:13:56.657Z,993.66
2019-03-15T04:14:56.613Z,993.66
2019-03-15T04:15:56.605Z,993.68
2019-03-15T04:16:56.591Z,993.66
2019-03-15T04:17:56.579Z,993.68
2019-03-15T04:18:56.577Z,993.65
2019-03-15T04:19:56.556Z,993.87
2019-03-15T04:20:56.560Z,993.79
2019-03-15T04:21:56.535Z,993.72
2019-03-15T04:22:56.526Z,993.73
2019-03-15T04:23:56.523Z,993.74
2019-03-15T04:24:56.503Z,993.85
2019-03-15T04:25:56.498Z,993.80
2019-03-15T04:26:56.495Z,993.71
2019-03-15T04:27:56.514Z,993.88
2019-03-15T04:28:57.135Z,993.79
2019-03-15T04:29:56.449Z,993.83
2019-03-15T04:30:56.438Z,993.87
2019-03-15T04:31:56.423Z,993.80
2019-03-15T04:32:56.421Z,993.74
2019-03-15T04:33:56.416Z,993.86
2019-03-15T04:34:56.391Z,993.86
2019-03-15T04:35:56.380Z,993.81
2019-03-15T04:36:56.372Z,993.90
2019-03-15T04:37:56.361Z,993.93
2019-03-15T04:38:56.360Z,993.78
2019-03-15T04:39:56.336Z,993.92
2019-03-15T04:40:56.327Z,993.98
2019-03-15T04:41:56.317Z,993.96
2019-03-15T04:42:56.305Z,993.97
2019-03-15T04:43:56.302Z,993.99
2019-03-15T04:44:56.282Z,993.85
2019-03-15T04:45:56.275Z,994.02
2019-03-15T04:46:56.260Z,994.03
2019-03-15T04:47:56.251Z,994.03
2019-03-15T04:48:56.475Z,994.09
2019-03-15T04:49:56.230Z,994.07
2019-03-15T04:50:56.253Z,994.08
2019-03-15T04:51:56.217Z,994.09
2019-03-15T04:52:56.219Z,994.12
2019-03-15T04:53:56.191Z,994.05
2019-03-15T04:54:56.171Z,994.09
2019-03-15T04:55:56.160Z,994.18
2019-03-15T04:56:56.151Z,994.07
2019-03-15T04:57:56.142Z,994.24
2019-03-15T04:58:56.138Z,994.28
2019-03-15T04:59:56.120Z,994.24
2019-03-15T05:00:56.107Z,994.25
2019-03-15T05:01:56.106Z,994.25
2019-03-15T05:02:56.091Z,994.30
2019-03-15T05:03:56.182Z,994.31
2019-03-15T05:04:56.067Z,994.29
2019-03-15T05:06:03.231Z,994.34
2019-03-15T05:06:57.051Z,994.27
2019-03-15T05:07:56.029Z,994.29
2019-03-15T05:08:56.021Z,994.34
2019-03-15T05:09:56.018Z,994.29
2019-03-15T05:10:55.997Z,994.32
2019-03-15T05:11:55.985Z,994.32
2019-03-15T05:12:55.975Z,994.32
2019-03-15T05:13:58.633Z,994.34
2019-03-15T05:14:55.969Z,994.42
2019-03-15T05:15:55.956Z,994.46
2019-03-15T05:16:56.062Z,994.49
2019-03-15T05:17:55.919Z,994.46
2019-03-15T05:18:55.911Z,994.57
2019-03-15T05:19:55.907Z,994.62
2019-03-15T05:20:55.886Z,994.63
2019-03-15T05:21:55.879Z,994.54
2019-03-15T05:22:55.869Z,994.52
2019-03-15T05:23:55.859Z,994.57
2019-03-15T05:24:55.852Z,994.60
2019-03-15T05:25:55.832Z,994.59
2019-03-15T05:26:55.826Z,994.70
2019-03-15T05:27:55.810Z,994.63
2019-03-15T05:28:55.800Z,994.66
2019-03-15T05:29:55.800Z,994.72
2019-03-15T05:30:55.776Z,994.66
2019-03-15T05:31:55.781Z,994.76
2019-03-15T05:32:55.755Z,994.68
2019-03-15T05:33:55.745Z,994.72
2019-03-15T05:34:55.741Z,994.68
2019-03-15T05:35:55.722Z,994.67
2019-03-15T05:36:55.709Z,994.83
2019-03-15T05:37:55.702Z,994.84
2019-03-15T05:38:55.690Z,994.78
2019-03-15T05:39:55.688Z,994.81
2019-03-15T05:40:55.665Z,994.85
2019-03-15T05:41:55.657Z,994.83
2019-03-15T05:42:55.647Z,994.84
2019-03-15T05:43:55.634Z,994.75
2019-03-15T05:44:55.631Z,994.84
2019-03-15T05:45:55.612Z,994.78
2019-03-15T05:46:55.602Z,994.80
2019-03-15T05:47:55.594Z,994.82
2019-03-15T05:48:55.579Z,994.93
2019-03-15T05:49:55.586Z,994.92
2019-03-15T05:50:55.559Z,994.94
2019-03-15T05:51:55.550Z,994.83
2019-03-15T05:52:55.544Z,994.98
2019-03-15T05:53:55.528Z,994.96
2019-03-15T05:54:55.966Z,994.99
2019-03-15T05:55:56.446Z,995.00
2019-03-15T05:56:55.493Z,995.05
2019-03-15T05:57:55.479Z,995.06
2019-03-15T05:58:55.470Z,995.07
2019-03-15T05:59:55.477Z,995.04
2019-03-15T06:00:55.451Z,995.07
2019-03-15T06:01:55.443Z,995.09
2019-03-15T06:02:55.426Z,995.15
2019-03-15T06:03:55.417Z,995.14
2019-03-15T06:04:55.411Z,994.99
2019-03-15T06:05:55.405Z,995.13
2019-03-15T06:06:55.382Z,995.14
2019-03-15T06:07:55.372Z,995.13
2019-03-15T06:08:55.361Z,995.18
2019-03-15T06:09:55.364Z,995.19
2019-03-15T06:10:55.341Z,995.23
2019-03-15T06:11:55.326Z,995.20
2019-03-15T06:12:55.317Z,995.30
2019-03-15T06:13:55.306Z,995.37
2019-03-15T06:14:55.309Z,995.29
2019-03-15T06:15:55.285Z,995.34
2019-03-15T06:16:55.275Z,995.34
2019-03-15T06:17:55.268Z,995.39
2019-03-15T06:18:55.250Z,995.36
2019-03-15T06:19:55.250Z,995.36
2019-03-15T06:20:55.231Z,995.39
2019-03-15T06:21:55.220Z,995.41
2019-03-15T06:22:55.212Z,995.41
2019-03-15T06:23:55.195Z,995.46
2019-03-15T06:24:55.195Z,995.52
2019-03-15T06:25:55.174Z,995.39
2019-03-15T06:26:55.164Z,995.55
2019-03-15T06:27:55.159Z,995.46
2019-03-15T06:28:55.140Z,995.49
2019-03-15T06:29:55.140Z,995.55
2019-03-15T06:30:55.121Z,995.56
2019-03-15T06:31:55.109Z,995.55
2019-03-15T06:32:55.097Z,995.39
2019-03-15T06:33:55.089Z,995.46
2019-03-15T06:34:55.102Z,995.49
2019-03-15T06:35:55.068Z,995.41
2019-03-15T06:36:55.058Z,995.45
2019-03-15T06:37:55.045Z,995.49
2019-03-15T06:38:55.038Z,995.51
2019-03-15T06:39:55.023Z,995.64
2019-03-15T06:40:55.020Z,995.49
2019-03-15T06:41:55.000Z,995.63
2019-03-15T06:42:54.989Z,995.50
2019-03-15T06:43:54.978Z,995.50
2019-03-15T06:44:58.212Z,995.55
2019-03-15T06:45:54.968Z,995.45
2019-03-15T06:46:54.947Z,995.51
2019-03-15T06:47:54.944Z,995.52
2019-03-15T06:48:55.164Z,995.59
2019-03-15T06:49:54.915Z,995.55
2019-03-15T06:50:54.914Z,995.41
2019-03-15T06:51:54.894Z,995.54
2019-03-15T06:52:54.884Z,995.48
2019-03-15T06:53:54.871Z,995.57
2019-03-15T06:54:54.860Z,995.57
2019-03-15T06:55:54.856Z,995.49
2019-03-15T06:56:54.836Z,995.64
2019-03-15T06:57:54.825Z,995.53
2019-03-15T06:58:54.814Z,995.59
2019-03-15T06:59:54.802Z,995.63
2019-03-15T07:00:55.037Z,995.62
2019-03-15T07:01:54.784Z,995.64
2019-03-15T07:02:54.779Z,995.57
2019-03-15T07:03:54.763Z,995.60
2019-03-15T07:04:54.750Z,995.58
2019-03-15T07:05:54.750Z,995.63
2019-03-15T07:06:54.731Z,995.60
2019-03-15T07:07:54.717Z,995.66
2019-03-15T07:08:54.708Z,995.63
2019-03-15T07:09:54.711Z,995.74
2019-03-15T07:10:54.693Z,995.68
2019-03-15T07:11:54.695Z,995.73
2019-03-15T07:12:54.662Z,995.64
2019-03-15T07:13:54.653Z,995.62
2019-03-15T07:14:54.643Z,995.71
2019-03-15T07:15:54.637Z,995.73
2019-03-15T07:16:54.618Z,995.76
2019-03-15T07:17:54.626Z,995.74
2019-03-15T07:18:54.597Z,995.75
2019-03-15T07:19:54.800Z,995.65
2019-03-15T07:20:54.591Z,995.75
2019-03-15T07:21:54.565Z,995.71
2019-03-15T07:22:54.555Z,995.72
2019-03-15T07:23:57.695Z,995.74
2019-03-15T07:24:54.542Z,995.82
2019-03-15T07:25:54.529Z,995.77
2019-03-15T07:26:54.535Z,995.70
2019-03-15T07:27:54.498Z,995.77
2019-03-15T07:28:54.490Z,995.75
2019-03-15T07:29:54.480Z,995.77
2019-03-15T07:30:54.476Z,995.73
2019-03-15T07:31:54.460Z,995.67
2019-03-15T07:32:54.445Z,995.70
2019-03-15T07:33:54.432Z,995.78
2019-03-15T07:34:54.443Z,995.76
2019-03-15T07:35:54.524Z,995.84
2019-03-15T07:36:55.467Z,995.83
2019-03-15T07:37:54.393Z,995.82
2019-03-15T07:38:54.381Z,995.84
2019-03-15T07:39:54.369Z,995.88
2019-03-15T07:40:54.357Z,995.80
2019-03-15T07:41:54.356Z,995.88
2019-03-15T07:42:54.338Z,995.90
2019-03-15T07:43:54.323Z,995.89
2019-03-15T07:44:54.313Z,996.10
2019-03-15T07:45:54.306Z,996.06
2019-03-15T07:46:54.301Z,995.99
2019-03-15T07:47:54.282Z,995.89
2019-03-15T07:48:54.269Z,996.05
2019-03-15T07:49:54.257Z,995.96
2019-03-15T07:50:54.245Z,995.91
2019-03-15T07:51:54.249Z,995.91
2019-03-15T07:52:54.227Z,995.86
2019-03-15T07:53:54.216Z,995.92
2019-03-15T07:54:54.294Z,995.93
2019-03-15T07:55:54.194Z,995.76
2019-03-15T07:56:54.191Z,995.90
2019-03-15T07:57:54.172Z,995.90
2019-03-15T07:58:54.160Z,995.90
2019-03-15T07:59:54.228Z,995.89
2019-03-15T08:00:54.152Z,995.93
2019-03-15T08:01:54.138Z,995.86
2019-03-15T08:02:54.119Z,995.88
2019-03-15T08:03:54.103Z,995.83
2019-03-15T08:04:54.103Z,995.95
2019-03-15T08:05:54.272Z,995.90
2019-03-15T08:06:54.081Z,996.20
2019-03-15T08:07:54.063Z,996.19
2019-03-15T08:08:54.053Z,996.13
2019-03-15T08:09:54.038Z,996.04
2019-03-15T08:10:55.134Z,996.06
2019-03-15T08:11:54.055Z,996.07
2019-03-15T08:12:54.008Z,996.00
2019-03-15T08:13:53.998Z,996.03
2019-03-15T08:14:53.985Z,996.02
2019-03-15T08:15:53.970Z,996.11
2019-03-15T08:16:53.987Z,996.20
2019-03-15T08:17:53.951Z,996.09
2019-03-15T08:18:53.942Z,996.19
2019-03-15T08:19:53.927Z,996.24
2019-03-15T08:20:53.917Z,996.23
2019-03-15T08:21:56.433Z,996.16
2019-03-15T08:22:53.905Z,996.21
2019-03-15T08:23:53.886Z,996.19
2019-03-15T08:24:53.872Z,996.24
2019-03-15T08:25:53.869Z,996.22
2019-03-15T08:26:53.856Z,996.14
2019-03-15T08:27:54.002Z,996.17
2019-03-15T08:28:53.857Z,996.23
2019-03-15T08:29:53.847Z,996.23
2019-03-15T08:30:53.809Z,996.17
2019-03-15T08:31:53.802Z,996.23
2019-03-15T08:32:54.016Z,996.27
2019-03-15T08:33:53.858Z,996.28
2019-03-15T08:34:53.762Z,996.25
2019-03-15T08:35:53.753Z,996.28
2019-03-15T08:36:53.757Z,996.24
2019-03-15T08:37:53.740Z,996.26
2019-03-15T08:38:53.725Z,996.30
2019-03-15T08:39:53.709Z,996.29
2019-03-15T08:40:53.701Z,996.35
2019-03-15T08:41:53.686Z,996.30
2019-03-15T08:42:53.702Z,996.28
2019-03-15T08:43:53.700Z,996.27
2019-03-15T08:44:53.653Z,996.33
2019-03-15T08:45:53.642Z,996.37
2019-03-15T08:46:53.641Z,996.38
2019-03-15T08:47:53.638Z,996.40
2019-03-15T08:48:53.609Z,996.45
2019-03-15T08:49:53.597Z,996.38
2019-03-15T08:50:53.586Z,996.39
2019-03-15T08:52:03.387Z,996.42
2019-03-15T08:52:54.651Z,996.41
2019-03-15T08:53:53.566Z,996.42
2019-03-15T08:55:04.615Z,996.40
2019-03-15T08:55:54.535Z,996.44
2019-03-15T08:56:53.519Z,996.41
2019-03-15T08:57:53.520Z,996.37
2019-03-15T08:58:53.504Z,996.45
2019-03-15T08:59:57.510Z,996.39
2019-03-15T09:00:53.475Z,996.40
2019-03-15T09:01:53.465Z,996.37
2019-03-15T09:02:53.471Z,996.41
2019-03-15T09:03:53.444Z,996.33
2019-03-15T09:04:53.456Z,996.26
2019-03-15T09:05:53.505Z,996.36
2019-03-15T09:06:53.410Z,996.35
2019-03-15T09:07:53.412Z,996.35
2019-03-15T09:08:53.397Z,996.34
2019-03-15T09:09:53.381Z,996.36
2019-03-15T09:10:53.368Z,996.33
2019-03-15T09:11:53.360Z,996.38
2019-03-15T09:12:53.357Z,996.36
2019-03-15T09:13:53.348Z,996.28
2019-03-15T09:14:53.323Z,996.29
2019-03-15T09:15:53.332Z,996.26
2019-03-15T09:16:53.301Z,996.28
2019-03-15T09:17:53.305Z,996.17
2019-03-15T09:18:55.531Z,996.13
2019-03-15T09:19:53.315Z,996.13
2019-03-15T09:20:53.258Z,996.33
2019-03-15T09:21:53.247Z,996.20
2019-03-15T09:22:53.242Z,996.20
2019-03-15T09:23:53.224Z,996.23
2019-03-15T09:24:53.224Z,996.17
2019-03-15T09:25:53.203Z,996.21
2019-03-15T09:26:53.201Z,996.18
2019-03-15T09:27:53.179Z,996.18
2019-03-15T09:28:53.176Z,996.30
2019-03-15T09:29:53.160Z,996.30
2019-03-15T09:30:53.148Z,996.20
2019-03-15T09:32:04.819Z,996.24
2019-03-15T09:32:54.125Z,996.18
2019-03-15T09:33:53.146Z,996.16
2019-03-15T09:34:55.591Z,996.14
2019-03-15T09:35:53.091Z,996.14
2019-03-15T09:36:53.085Z,996.13
2019-03-15T09:37:53.078Z,996.18
2019-03-15T09:38:53.069Z,996.14
2019-03-15T09:39:53.057Z,996.03
2019-03-15T09:40:53.060Z,996.10
2019-03-15T09:41:53.029Z,996.14
2019-03-15T09:42:53.018Z,996.09
2019-03-15T09:43:53.017Z,996.17
2019-03-15T09:44:53.006Z,996.24
2019-03-15T09:45:55.559Z,996.07
2019-03-15T09:46:52.972Z,996.11
2019-03-15T09:47:52.962Z,996.13
2019-03-15T09:48:52.963Z,996.17
2019-03-15T09:49:52.944Z,996.15
2019-03-15T09:50:52.928Z,996.15
2019-03-15T09:51:52.917Z,996.10
2019-03-15T09:52:52.908Z,996.12
2019-03-15T09:53:52.910Z,996.19
2019-03-15T09:54:52.901Z,996.19
2019-03-15T09:55:52.874Z,996.14
2019-03-15T09:56:52.862Z,996.16
2019-03-15T09:57:52.848Z,996.08
2019-03-15T09:58:52.846Z,996.03
2019-03-15T09:59:52.825Z,996.15
2019-03-15T10:00:52.830Z,996.06
2019-03-15T10:01:52.810Z,996.14
2019-03-15T10:02:55.847Z,996.16
2019-03-15T10:03:52.790Z,996.19
2019-03-15T10:04:52.771Z,996.16
2019-03-15T10:05:52.764Z,996.20
2019-03-15T10:06:52.937Z,996.09
2019-03-15T10:07:52.742Z,996.15
2019-03-15T10:08:52.737Z,996.12
2019-03-15T10:09:52.717Z,996.03
2019-03-15T10:10:52.706Z,996.10
2019-03-15T10:11:53.901Z,996.14
2019-03-15T10:13:05.090Z,996.03
2019-03-15T10:13:53.687Z,996.05
2019-03-15T10:14:52.662Z,996.08
2019-03-15T10:15:55.512Z,995.98
2019-03-15T10:16:53.507Z,996.00
2019-03-15T10:17:52.636Z,995.93
2019-03-15T10:18:52.629Z,995.87
2019-03-15T10:19:52.606Z,995.94
2019-03-15T10:20:52.596Z,995.90
2019-03-15T10:21:52.603Z,995.93
2019-03-15T10:23:05.536Z,995.96
2019-03-15T10:23:53.571Z,995.97
2019-03-15T10:24:52.555Z,995.92
2019-03-15T10:25:52.547Z,995.88
2019-03-15T10:26:52.532Z,995.89
2019-03-15T10:27:52.518Z,995.86
2019-03-15T10:28:52.541Z,995.92
2019-03-15T10:29:52.519Z,995.94
2019-03-15T10:30:52.486Z,995.95
2019-03-15T10:31:52.570Z,995.96
2019-03-15T10:32:52.472Z,995.90
2019-03-15T10:33:52.453Z,995.94
2019-03-15T10:34:52.461Z,995.81
2019-03-15T10:35:52.432Z,995.81
2019-03-15T10:36:52.422Z,995.71
2019-03-15T10:37:52.414Z,995.74
2019-03-15T10:38:52.407Z,995.75
2019-03-15T10:39:52.399Z,995.83
2019-03-15T10:40:52.382Z,995.83
2019-03-15T10:41:52.367Z,995.88
2019-03-15T10:42:55.379Z,995.89
2019-03-15T10:43:52.345Z,995.93
2019-03-15T10:44:52.342Z,995.88
2019-03-15T10:45:52.321Z,995.86
2019-03-15T10:46:52.311Z,995.75
2019-03-15T10:47:52.300Z,995.78
2019-03-15T10:48:52.288Z,995.74
2019-03-15T10:49:52.287Z,995.70
2019-03-15T10:50:52.277Z,995.63
2019-03-15T10:51:52.260Z,995.69
2019-03-15T10:52:53.811Z,995.72
2019-03-15T10:53:54.949Z,995.63
2019-03-15T10:54:52.234Z,995.60
2019-03-15T10:56:00.042Z,995.65
2019-03-15T10:56:53.201Z,995.57
2019-03-15T10:57:53.071Z,995.56
2019-03-15T10:58:52.191Z,995.56
2019-03-15T10:59:52.176Z,995.50
2019-03-15T11:00:52.175Z,995.47
2019-03-15T11:01:52.146Z,995.56
2019-03-15T11:02:52.152Z,995.50
2019-03-15T11:03:52.123Z,995.56
2019-03-15T11:04:52.121Z,995.66
2019-03-15T11:05:52.101Z,995.60
2019-03-15T11:06:52.089Z,995.53
2019-03-15T11:07:52.079Z,995.60
2019-03-15T11:08:52.070Z,995.46
2019-03-15T11:09:52.072Z,995.44
2019-03-15T11:10:52.046Z,995.42
2019-03-15T11:11:52.039Z,995.43
2019-03-15T11:12:52.021Z,995.45
2019-03-15T11:13:52.013Z,995.42
2019-03-15T11:14:52.010Z,995.39
2019-03-15T11:15:51.989Z,995.40
2019-03-15T11:16:51.990Z,995.36
2019-03-15T11:17:51.976Z,995.29
2019-03-15T11:18:51.956Z,995.38
2019-03-15T11:19:51.964Z,995.35
2019-03-15T11:20:51.935Z,995.27
2019-03-15T11:21:51.927Z,995.24
2019-03-15T11:22:51.914Z,995.35
2019-03-15T11:23:51.942Z,995.26
2019-03-15T11:24:51.901Z,995.33
2019-03-15T11:25:51.881Z,995.28
2019-03-15T11:26:51.890Z,995.19
2019-03-15T11:27:51.860Z,995.19
2019-03-15T11:28:51.846Z,995.16
2019-03-15T11:29:51.851Z,995.12
2019-03-15T11:30:51.861Z,995.11
2019-03-15T11:31:51.815Z,994.96
2019-03-15T11:32:51.804Z,995.01
2019-03-15T11:33:51.791Z,994.97
2019-03-15T11:34:51.791Z,994.96
2019-03-15T11:35:51.816Z,994.92
2019-03-15T11:36:58.207Z,994.95
2019-03-15T11:37:52.754Z,994.86
2019-03-15T11:38:51.738Z,994.90
2019-03-15T11:39:51.734Z,994.97
2019-03-15T11:40:51.719Z,994.94
2019-03-15T11:41:51.711Z,995.04
2019-03-15T11:42:51.695Z,994.90
2019-03-15T11:43:51.682Z,994.97
2019-03-15T11:44:51.681Z,994.93
2019-03-15T11:45:51.665Z,994.89
2019-03-15T11:46:51.665Z,994.98
2019-03-15T11:48:03.307Z,994.92
2019-03-15T11:48:52.626Z,994.90
2019-03-15T11:49:51.629Z,994.87
2019-03-15T11:50:51.606Z,994.91
2019-03-15T11:51:51.594Z,994.87
2019-03-15T11:52:51.588Z,994.87
2019-03-15T11:53:51.576Z,994.86
2019-03-15T11:54:51.570Z,994.90
2019-03-15T11:55:51.551Z,994.73
2019-03-15T11:56:51.552Z,994.91
2019-03-15T11:57:51.531Z,994.89
2019-03-15T11:58:51.518Z,994.89
2019-03-15T11:59:51.549Z,994.96
2019-03-15T12:00:51.499Z,994.86
2019-03-15T12:02:03.590Z,994.75
2019-03-15T12:02:52.472Z,994.71
2019-03-15T12:03:53.292Z,994.91
2019-03-15T12:04:51.484Z,994.79
2019-03-15T12:05:51.449Z,994.79
2019-03-15T12:06:51.429Z,994.71
2019-03-15T12:07:51.422Z,994.68
2019-03-15T12:08:51.411Z,994.53
2019-03-15T12:09:51.397Z,994.52
2019-03-15T12:10:51.396Z,994.47
2019-03-15T12:11:51.377Z,994.43
2019-03-15T12:12:51.368Z,994.47
2019-03-15T12:13:51.362Z,994.41
2019-03-15T12:14:51.341Z,994.36
2019-03-15T12:15:51.341Z,994.37
2019-03-15T12:16:51.321Z,994.32
2019-03-15T12:17:51.381Z,994.39
2019-03-15T12:18:51.318Z,994.39
2019-03-15T12:19:51.287Z,994.18
2019-03-15T12:20:51.287Z,994.20
2019-03-15T12:21:51.274Z,994.25
2019-03-15T12:22:51.257Z,994.34
2019-03-15T12:23:51.244Z,994.23
2019-03-15T12:24:51.253Z,994.31
2019-03-15T12:25:51.238Z,994.22
2019-03-15T12:26:51.211Z,994.41
2019-03-15T12:27:51.212Z,994.36
2019-03-15T12:28:51.190Z,994.18